createdAt,value
2022-08-30T00:01:33.361Z,100078.34
2022-08-30T00:19:58.265Z,100068.44
2022-08-30T00:22:25.311Z,100072.03
2022-08-30T01:11:11.850Z,100069.59
2022-08-30T01:13:39.007Z,100078.66
2022-08-30T01:16:06.117Z,100070.59
2022-08-30T01:31:42.229Z,100063.38
2022-08-30T01:34:09.222Z,100062.09
2022-08-30T01:37:22.571Z,100069.75
2022-08-30T01:40:15.114Z,100072.03
2022-08-30T02:23:59.277Z,100043.84
2022-08-30T02:26:26.227Z,100043.78
2022-08-30T02:28:53.945Z,100042.97
2022-08-30T02:31:40.816Z,100041.13
2022-08-30T02:34:07.995Z,100047.66
2022-08-30T02:36:34.753Z,100044.28
2022-08-30T02:39:01.552Z,100047.06
2022-08-30T02:41:28.394Z,100048.03
2022-08-30T02:43:58.650Z,100053.66
2022-08-30T03:47:13.472Z,100078.63
2022-08-30T04:03:11.522Z,100088.97
2022-08-30T04:05:50.382Z,100104.78
2022-08-30T04:08:16.966Z,100098.28
2022-08-30T04:10:43.960Z,100098.13
2022-08-30T04:13:34.617Z,100098.78
2022-08-30T04:37:32.972Z,100138.50
2022-08-30T04:40:02.493Z,100146.16
2022-08-30T04:42:32.222Z,100144.69
2022-08-30T05:03:54.291Z,100157.62
2022-08-30T05:06:21.950Z,100156.84
2022-08-30T05:08:50.003Z,100159.75
2022-08-30T05:11:17.727Z,100158.22
2022-08-30T05:13:44.878Z,100161.00
2022-08-30T05:16:17.574Z,100162.34
2022-08-30T05:18:46.131Z,100169.47
2022-08-30T05:21:16.437Z,100176.22
2022-08-30T05:23:44.199Z,100172.97
2022-08-30T05:26:17.963Z,100170.56
2022-08-30T05:28:45.105Z,100173.72
2022-08-30T05:39:11.602Z,100165.25
2022-08-30T05:41:39.069Z,100165.87
2022-08-30T05:44:07.721Z,100170.66
2022-08-30T05:46:35.775Z,100165.41
2022-08-30T05:49:26.647Z,100174.91
2022-08-30T05:51:54.618Z,100178.25
2022-08-30T05:54:21.343Z,100177.84
2022-08-30T05:56:47.986Z,100174.59
2022-08-30T05:59:15.246Z,100176.72
2022-08-30T06:01:48.146Z,100184.44
2022-08-30T06:05:01.962Z,100187.81
2022-08-30T06:07:49.534Z,100182.59
2022-08-30T06:10:17.277Z,100187.44
2022-08-30T06:12:44.113Z,100187.38
2022-08-30T06:15:11.491Z,100196.78
2022-08-30T06:17:39.885Z,100196.50
2022-08-30T06:20:07.412Z,100191.47
2022-08-30T06:25:11.905Z,100192.97
2022-08-30T06:27:38.661Z,100197.88
2022-08-30T06:30:11.049Z,100197.44
2022-08-30T06:32:39.065Z,100194.19
2022-08-30T06:35:07.313Z,100189.97
2022-08-30T06:37:34.570Z,100185.72
2022-08-30T06:42:36.927Z,100193.59
2022-08-30T06:47:55.414Z,100194.03
2022-08-30T06:52:59.906Z,100195.12
2022-08-30T06:55:27.511Z,100195.56
2022-08-30T06:57:54.176Z,100196.94
2022-08-30T07:00:20.961Z,100197.00
2022-08-30T07:02:47.700Z,100201.66
2022-08-30T07:05:18.619Z,100203.97
2022-08-30T07:07:45.704Z,100201.34
2022-08-30T07:10:13.103Z,100197.81
2022-08-30T07:12:39.717Z,100202.59
2022-08-30T07:15:06.850Z,100210.25
2022-08-30T07:17:53.304Z,100215.62
2022-08-30T07:20:21.593Z,100210.47
2022-08-30T07:22:48.906Z,100214.88
2022-08-30T07:25:16.177Z,100209.06
2022-08-30T07:27:42.810Z,100214.09
2022-08-30T07:30:10.072Z,100216.37
2022-08-30T07:32:38.431Z,100212.34
2022-08-30T07:35:05.989Z,100213.41
2022-08-30T07:37:32.629Z,100215.25
2022-08-30T07:39:59.351Z,100216.59
2022-08-30T07:42:26.059Z,100223.37
2022-08-30T07:44:56.474Z,100227.75
2022-08-30T07:47:23.531Z,100215.75
2022-08-30T07:49:50.139Z,100230.19
2022-08-30T07:52:16.855Z,100226.25
2022-08-30T07:54:43.476Z,100222.19
2022-08-30T07:57:11.388Z,100222.31
2022-08-30T07:59:38.067Z,100226.72
2022-08-30T08:02:05.084Z,100224.13
2022-08-30T08:04:33.198Z,100230.87
2022-08-30T08:06:59.787Z,100230.75
2022-08-30T08:09:26.583Z,100228.00
2022-08-30T08:11:53.186Z,100224.09
2022-08-30T08:14:21.705Z,100223.31
2022-08-30T08:16:48.550Z,100223.34
2022-08-30T08:19:15.854Z,100225.00
2022-08-30T08:21:42.463Z,100228.78
2022-08-30T08:24:09.245Z,100232.53
2022-08-30T08:26:38.048Z,100228.50
2022-08-30T08:29:09.936Z,100235.34
2022-08-30T08:31:37.470Z,100232.28
2022-08-30T08:34:05.984Z,100232.72
2022-08-30T08:36:34.462Z,100236.59
2022-08-30T08:39:01.886Z,100238.84
2022-08-30T08:41:56.079Z,100235.28
2022-08-30T08:44:44.122Z,100243.34
2022-08-30T08:47:13.787Z,100233.94
2022-08-30T08:49:44.390Z,100241.91
2022-08-30T08:52:37.271Z,100231.00
2022-08-30T08:55:12.335Z,100235.97
2022-08-30T08:57:39.749Z,100232.91
2022-08-30T09:00:09.021Z,100239.78
2022-08-30T09:02:41.056Z,100237.03
2022-08-30T09:05:11.434Z,100232.59
2022-08-30T09:07:42.149Z,100225.34
2022-08-30T09:10:09.067Z,100233.19
2022-08-30T09:12:36.125Z,100226.09
2022-08-30T09:15:41.094Z,100221.34
2022-08-30T09:18:18.915Z,100220.66
2022-08-30T09:20:50.209Z,100215.84
2022-08-30T09:23:17.476Z,100202.97
2022-08-30T09:25:55.162Z,100216.56
2022-08-30T09:28:35.322Z,100209.84
2022-08-30T09:31:23.600Z,100202.59
2022-08-30T09:34:05.300Z,100202.97
2022-08-30T09:36:42.761Z,100198.16
2022-08-30T09:39:37.700Z,100195.78
2022-08-30T09:42:22.623Z,100201.78
2022-08-30T09:44:49.757Z,100198.50
2022-08-30T09:47:34.364Z,100184.84
2022-08-30T09:50:11.213Z,100180.78
2022-08-30T09:53:13.109Z,100179.59
2022-08-30T09:55:48.712Z,100173.09
2022-08-30T09:58:30.065Z,100174.84
2022-08-30T10:01:09.213Z,100170.44
2022-08-30T10:03:50.171Z,100170.47
2022-08-30T10:06:44.436Z,100165.59
2022-08-30T10:10:09.377Z,100161.59
2022-08-30T10:12:44.504Z,100161.84
2022-08-30T10:15:15.068Z,100164.75
2022-08-30T10:18:23.672Z,100166.25
2022-08-30T10:21:09.352Z,100163.91
2022-08-30T10:23:44.566Z,100163.44
2022-08-30T10:26:15.120Z,100158.13
2022-08-30T10:29:08.884Z,100160.75
2022-08-30T10:31:56.403Z,100166.59
2022-08-30T10:34:35.651Z,100158.41
2022-08-30T10:37:11.594Z,100149.78
2022-08-30T10:39:45.797Z,100152.69
2022-08-30T10:42:37.997Z,100151.28
2022-08-30T10:45:14.854Z,100147.94
2022-08-30T10:48:23.617Z,100132.84
2022-08-30T10:50:54.370Z,100139.88
2022-08-30T10:53:32.931Z,100130.19
2022-08-30T10:56:29.443Z,100136.81
2022-08-30T10:58:58.422Z,100130.25
2022-08-30T11:01:34.327Z,100131.91
2022-08-30T11:04:00.939Z,100127.00
2022-08-30T11:06:54.025Z,100124.53
2022-08-30T11:09:30.162Z,100116.88
2022-08-30T11:12:20.915Z,100121.09
2022-08-30T11:14:48.206Z,100125.72
2022-08-30T11:17:47.718Z,100113.56
2022-08-30T11:20:51.842Z,100117.56
2022-08-30T11:23:18.548Z,100110.09
2022-08-30T11:25:57.917Z,100107.97
2022-08-30T11:28:36.760Z,100110.59
2022-08-30T11:31:18.234Z,100099.91
2022-08-30T11:33:47.934Z,100098.56
2022-08-30T11:36:37.852Z,100096.50
2022-08-30T11:39:07.413Z,100097.03
2022-08-30T11:41:42.596Z,100086.34
2022-08-30T11:44:13.747Z,100091.50
2022-08-30T11:46:42.606Z,100088.09
2022-08-30T11:49:15.547Z,100087.66
2022-08-30T11:54:53.045Z,100078.56
2022-08-30T11:57:49.924Z,100068.91
2022-08-30T12:00:35.847Z,100066.56
2022-08-30T12:03:08.110Z,100070.66
2022-08-30T12:05:40.956Z,100052.91
2022-08-30T12:08:09.149Z,100060.22
2022-08-30T12:10:42.604Z,100062.09
2022-08-30T12:13:10.780Z,100053.81
2022-08-30T12:15:58.685Z,100058.56
2022-08-30T12:18:51.415Z,100047.72
2022-08-30T12:21:17.957Z,100040.22
2022-08-30T12:23:54.008Z,100053.63
2022-08-30T12:26:36.859Z,100046.84
2022-08-30T12:29:12.567Z,100047.31
2022-08-30T12:32:19.322Z,100043.78
2022-08-30T12:34:45.908Z,100032.03
2022-08-30T12:37:26.419Z,100029.66
2022-08-30T12:40:16.691Z,100026.78
2022-08-30T12:43:05.779Z,100024.63
2022-08-30T12:45:41.706Z,100016.13
2022-08-30T12:48:15.580Z,100012.03
2022-08-30T12:50:52.046Z,100005.34
2022-08-30T12:53:24.352Z,100010.13
2022-08-30T12:55:52.761Z,100000.91
2022-08-30T12:58:54.112Z,99997.69
2022-08-30T13:01:46.975Z,100002.87
2022-08-30T13:04:17.107Z,99997.16
2022-08-30T13:07:02.185Z,99991.72
2022-08-30T13:09:42.803Z,99995.25
2022-08-30T13:12:24.883Z,99992.22
2022-08-30T13:14:53.714Z,99987.84
2022-08-30T13:17:28.093Z,99990.59
2022-08-30T13:20:12.551Z,99983.78
2022-08-30T13:23:05.216Z,99985.03
2022-08-30T13:25:32.764Z,99981.28
2022-08-30T13:28:01.164Z,99973.34
2022-08-30T13:30:29.242Z,99966.59
2022-08-30T13:32:56.274Z,99963.13
2022-08-30T13:35:23.950Z,99966.94
2022-08-30T13:37:51.351Z,99962.19
2022-08-30T13:40:21.298Z,99954.87
2022-08-30T13:42:48.461Z,99952.66
2022-08-30T13:48:05.763Z,99953.94
2022-08-30T13:50:33.185Z,99952.84
2022-08-30T13:53:00.412Z,99950.84
2022-08-30T13:55:27.487Z,99947.13
2022-08-30T13:57:55.484Z,99948.25
2022-08-30T14:00:25.105Z,99946.97
2022-08-30T14:02:57.180Z,99937.97
2022-08-30T14:11:04.535Z,99933.34
2022-08-30T14:13:31.808Z,99933.22
2022-08-30T14:18:47.613Z,99916.31
2022-08-30T14:21:15.619Z,99919.34
2022-08-30T14:23:42.300Z,99912.47
2022-08-30T14:26:21.634Z,99912.38
2022-08-30T14:28:51.498Z,99907.44
2022-08-30T14:31:19.921Z,99912.47
2022-08-30T14:33:47.181Z,99911.63
2022-08-30T14:36:15.458Z,99904.59
2022-08-30T14:38:43.414Z,99909.72
2022-08-30T14:41:11.033Z,99900.06
2022-08-30T14:43:40.644Z,99903.84
2022-08-30T14:46:08.646Z,99902.81
2022-08-30T14:48:37.084Z,99900.75
2022-08-30T14:51:15.514Z,99908.34
2022-08-30T14:53:42.453Z,99906.56
2022-08-30T14:56:12.146Z,99901.59
2022-08-30T14:58:38.779Z,99893.31
2022-08-30T15:01:10.227Z,99895.31
2022-08-30T15:03:40.582Z,99897.03
2022-08-30T15:06:08.312Z,99886.63
2022-08-30T15:08:36.604Z,99887.19
2022-08-30T15:11:13.867Z,99891.50
2022-08-30T15:13:42.422Z,99882.78
2022-08-30T15:16:18.134Z,99885.94
2022-08-30T15:18:45.010Z,99886.84
2022-08-30T15:21:12.054Z,99891.06
2022-08-30T15:23:40.269Z,99889.91
2022-08-30T15:26:08.263Z,99892.19
2022-08-30T15:28:36.730Z,99883.19
2022-08-30T15:31:08.687Z,99889.78
2022-08-30T15:33:36.546Z,99886.09
2022-08-30T15:36:04.911Z,99886.94
2022-08-30T15:38:32.456Z,99883.22
2022-08-30T15:41:05.673Z,99884.75
2022-08-30T15:43:32.386Z,99882.62
2022-08-30T15:46:22.807Z,99885.28
2022-08-30T15:48:52.052Z,99881.47
2022-08-30T15:51:19.281Z,99886.63
2022-08-30T15:53:46.479Z,99887.97
2022-08-30T15:56:13.863Z,99884.19
2022-08-30T15:58:40.919Z,99892.19
2022-08-30T16:01:09.074Z,99892.97
2022-08-30T16:03:37.919Z,99889.59
2022-08-30T16:06:04.877Z,99882.78
2022-08-30T16:08:31.764Z,99873.72
2022-08-30T16:10:58.581Z,99881.38
2022-08-30T16:13:25.219Z,99879.56
2022-08-30T16:15:54.553Z,99875.34
2022-08-30T16:18:21.207Z,99880.00
2022-08-30T16:20:47.870Z,99879.63
2022-08-30T16:23:14.485Z,99875.22
2022-08-30T16:25:41.499Z,99875.19
2022-08-30T16:28:09.361Z,99879.84
2022-08-30T16:30:37.290Z,99870.44
2022-08-30T16:33:04.269Z,99867.31
2022-08-30T16:35:32.775Z,99869.66
2022-08-30T16:37:59.598Z,99866.19
2022-08-30T16:40:26.253Z,99871.06
2022-08-30T16:42:52.954Z,99868.62
2022-08-30T16:45:20.163Z,99869.75
2022-08-30T16:47:46.810Z,99866.16
2022-08-30T16:50:16.704Z,99871.53
2022-08-30T16:52:44.605Z,99875.69
2022-08-30T16:55:11.276Z,99875.66
2022-08-30T16:57:38.772Z,99879.69
2022-08-30T17:00:13.078Z,99877.81
2022-08-30T17:02:40.682Z,99877.44
2022-08-30T17:05:13.322Z,99876.22
2022-08-30T17:07:39.991Z,99873.81
2022-08-30T17:10:06.997Z,99881.06
2022-08-30T17:12:37.502Z,99883.47
2022-08-30T17:15:06.851Z,99882.34
2022-08-30T17:20:10.426Z,99885.75
2022-08-30T17:22:37.414Z,99890.06
2022-08-30T17:30:28.327Z,99891.53
2022-08-30T17:32:55.011Z,99896.03
2022-08-30T17:35:22.382Z,99894.00
2022-08-30T17:37:49.224Z,99901.59
2022-08-30T17:40:43.746Z,99904.38
2022-08-30T17:43:13.295Z,99909.59
2022-08-30T17:45:39.937Z,99911.22
2022-08-30T18:01:14.689Z,99927.38
2022-08-30T18:03:42.266Z,99933.37
2022-08-30T18:06:13.527Z,99940.25
2022-08-30T18:08:40.617Z,99935.44
2022-08-30T18:11:29.673Z,99940.69
2022-08-30T18:13:56.412Z,99942.72
2022-08-30T18:16:26.422Z,99945.19
2022-08-30T18:18:57.307Z,99949.19
2022-08-30T18:21:25.411Z,99954.78
2022-08-30T18:23:55.150Z,99951.62
2022-08-30T18:46:19.324Z,99957.66
2022-08-30T19:05:53.594Z,99962.44
2022-08-30T19:08:20.288Z,99969.25
2022-08-30T19:10:47.169Z,99960.44
2022-08-30T19:13:14.864Z,99968.44
2022-08-30T19:15:41.626Z,99969.56
2022-08-30T19:18:17.362Z,99974.00
2022-08-30T19:20:45.686Z,99964.72
2022-08-30T19:23:14.660Z,99964.72
2022-08-30T19:25:41.464Z,99964.72
2022-08-30T19:28:09.097Z,99964.25
2022-08-30T19:30:36.543Z,99961.81
2022-08-30T19:33:03.524Z,99973.81
2022-08-30T19:35:32.368Z,99973.41
2022-08-30T19:46:05.117Z,99966.34
2022-08-30T19:48:32.785Z,99971.50
2022-08-30T19:51:00.441Z,99971.94
2022-08-30T19:53:27.320Z,99962.84
2022-08-30T19:55:54.390Z,99966.03
2022-08-30T19:58:21.035Z,99967.66
2022-08-30T20:00:54.279Z,99962.06
2022-08-30T20:03:27.857Z,99973.56
2022-08-30T20:05:54.561Z,99971.91
2022-08-30T20:08:22.451Z,99977.47
2022-08-30T20:10:49.116Z,99977.50
2022-08-30T20:13:19.764Z,99974.31
2022-08-30T20:15:56.611Z,99967.47
2022-08-30T20:18:26.067Z,99975.12
2022-08-30T20:20:53.576Z,99970.44
2022-08-30T20:23:23.642Z,99970.75
2022-08-30T20:25:53.251Z,99970.47
2022-08-30T20:28:21.093Z,99971.03
2022-08-30T20:30:48.483Z,99961.06
2022-08-30T20:33:16.060Z,99962.75
2022-08-30T20:35:48.731Z,99949.16
2022-08-30T20:38:21.389Z,99957.78
2022-08-30T20:40:51.209Z,99942.03
2022-08-30T20:43:19.384Z,99947.28
2022-08-30T20:45:47.216Z,99940.31
2022-08-30T21:04:41.597Z,99955.06
2022-08-30T21:07:15.754Z,99956.69
2022-08-30T21:12:50.952Z,99960.66
2022-08-30T21:15:36.709Z,99964.63
2022-08-30T21:37:53.332Z,99957.66
2022-08-30T21:40:20.839Z,99955.28
2022-08-30T21:42:47.490Z,99964.59
2022-08-30T21:45:15.373Z,99961.59
2022-08-30T21:47:42.412Z,99963.87
2022-08-30T21:50:09.475Z,99961.53
2022-08-30T21:52:36.344Z,99966.72
2022-08-30T21:55:05.400Z,99963.63
2022-08-30T21:57:32.926Z,99970.97
2022-08-30T21:59:59.842Z,99966.25
2022-08-30T22:07:56.879Z,99962.41
2022-08-30T22:10:23.905Z,99969.38
2022-08-30T22:12:50.606Z,99960.50
2022-08-30T22:20:40.272Z,99961.63
2022-08-30T22:23:08.286Z,99959.44
2022-08-30T22:25:35.128Z,99957.69
2022-08-30T22:30:40.041Z,99955.13
2022-08-30T22:33:07.100Z,99956.19
2022-08-30T22:41:31.022Z,99951.81
2022-08-30T22:47:40.019Z,99947.78
2022-08-30T22:50:09.880Z,99942.56
2022-08-30T22:52:36.550Z,99937.63
2022-08-30T22:55:04.259Z,99945.19
2022-08-30T22:57:31.150Z,99947.16
2022-08-30T22:59:57.748Z,99967.91
2022-08-30T23:02:37.099Z,99961.84
2022-08-30T23:05:05.408Z,99962.69
2022-08-30T23:07:32.024Z,99950.63
2022-08-30T23:09:59.290Z,99959.31
2022-08-30T23:12:26.834Z,99945.56
2022-08-30T23:14:54.101Z,99952.06
2022-08-30T23:17:59.072Z,99945.78
2022-08-30T23:21:17.209Z,99943.84
2022-08-30T23:24:02.372Z,99939.66
2022-08-30T23:26:47.774Z,99944.91
2022-08-30T23:29:33.174Z,99937.47
2022-08-30T23:32:19.119Z,99943.25
2022-08-30T23:35:04.712Z,99935.56
2022-08-30T23:38:08.595Z,99931.63
2022-08-30T23:40:54.105Z,99940.19
2022-08-30T23:43:39.543Z,99935.88
2022-08-30T23:46:24.566Z,99933.34
2022-08-30T23:49:09.866Z,99932.03
2022-08-30T23:56:01.363Z,99935.00
2022-08-30T23:58:46.434Z,99943.13
